This is the latest recevied weather packets stored in our database for station/object WW5AH-9. If no packets are shown the sender has not sent any weather packets the latest 1 day(s).
| Time | Temp. | Humidity | Pressure | Rain* | Wind** | Luminosity | Snow |
|---|---|---|---|---|---|---|---|
| 1778024222 | 27.78° C | 70% | 1003.9 hPa | 0 mm | 0.89 m/s, 220° | 42 W/m² | - |
| 1778023920 | 27.78° C | 70% | 1003.7 hPa | 0 mm | 0.89 m/s, 194° | 67 W/m² | - |
| 1778023618 | 27.78° C | 71% | 1003.6 hPa | 0 mm | 1.79 m/s, 216° | 138 W/m² | - |
| 1778023315 | 27.78° C | 71% | 1003.6 hPa | 0 mm | 1.34 m/s, 166° | 131 W/m² | - |
| 1778023011 | 27.22° C | 71% | 1003.6 hPa | 0 mm | 0.45 m/s, 205° | 149 W/m² | - |
| 1778022710 | 27.78° C | 70% | 1003.4 hPa | 0 mm | 0.89 m/s, 183° | 103 W/m² | - |
| 1778022408 | 27.78° C | 70% | 1003.6 hPa | 0 mm | 1.34 m/s, 201° | 80 W/m² | - |
| 1778022104 | 27.78° C | 69% | 1003.5 hPa | 0 mm | 2.68 m/s, 164° | 84 W/m² | - |
| 1778021795 | 28.33° C | 68% | 1003.8 hPa | 0 mm | 0.89 m/s, 151° | 102 W/m² | - |
| 1778021492 | 28.33° C | 69% | 1003.8 hPa | 0 mm | 0 m/s | 132 W/m² | - |
| 1778021188 | 27.78° C | 68% | 1003.9 hPa | 0 mm | 1.79 m/s, 224° | 219 W/m² | - |
| 1778020886 | 28.33° C | 67% | 1003.7 hPa | 0 mm | 0.45 m/s, 178° | 84 W/m² | - |
| 1778020583 | 28.89° C | 66% | 1004.1 hPa | 0 mm | 1.34 m/s, 227° | 102 W/m² | - |
| 1778020279 | 28.89° C | 67% | 1003.9 hPa | 0 mm | 0 m/s | 167 W/m² | - |
| 1778019975 | 28.89° C | 66% | 1003.7 hPa | 0 mm | 0.89 m/s, 153° | 181 W/m² | - |
| 1778019672 | 29.44° C | 65% | 1003.6 hPa | 0 mm | 0.45 m/s, 203° | 142 W/m² | - |
| 1778019369 | 29.44° C | 65% | 1003.7 hPa | 0 mm | 0 m/s | 338 W/m² | - |
| 1778019065 | 29.44° C | 65% | 1003.8 hPa | 0 mm | 1.34 m/s, 225° | 136 W/m² | - |
| 1778018762 | 29.44° C | 66% | 1003.7 hPa | 0 mm | 0.89 m/s, 341° | 385 W/m² | - |
| 1778018460 | 28.89° C | 67% | 1003.9 hPa | 0 mm | 0.45 m/s, 252° | 245 W/m² | - |
| 1778018158 | 28.89° C | 68% | 1004.2 hPa | 0 mm | 0 m/s | 195 W/m² | - |
| 1778017855 | 28.33° C | 69% | 1003.9 hPa | 0 mm | 2.24 m/s, 256° | 344 W/m² | - |
| 1778017553 | 27.78° C | 69% | 1004.1 hPa | 0 mm | 0 m/s | 276 W/m² | - |
| 1778017249 | 28.33° C | 68% | 1003.9 hPa | 0 mm | 1.34 m/s, 177° | 201 W/m² | - |
| 1778016948 | 28.33° C | 67% | 1004 hPa | 0 mm | 0 m/s | 167 W/m² | - |
* Rain latest hour (hover to see other rain measurements)
** Current wind speed in m/s (hover to see current wind gust speed)